sensor_id;sensor_type;location;lat;lon;timestamp;P1;durP1;ratioP1;P2;durP2;ratioP2
26860;SDS011;37676;46.956;7.430;2022-08-25T00:00:56;2.13;;;0.90;;
26860;SDS011;37676;46.956;7.430;2022-08-25T00:03:21;1.23;;;0.70;;
26860;SDS011;37676;46.956;7.430;2022-08-25T00:05:47;1.40;;;0.80;;
26860;SDS011;37676;46.956;7.430;2022-08-25T00:08:12;1.48;;;0.68;;
26860;SDS011;37676;46.956;7.430;2022-08-25T00:10:38;1.50;;;0.70;;
26860;SDS011;37676;46.956;7.430;2022-08-25T00:13:04;1.80;;;0.88;;
26860;SDS011;37676;46.956;7.430;2022-08-25T00:15:30;1.75;;;0.93;;
26860;SDS011;37676;46.956;7.430;2022-08-25T00:17:57;1.67;;;0.82;;
26860;SDS011;37676;46.956;7.430;2022-08-25T00:20:24;2.42;;;0.98;;
26860;SDS011;37676;46.956;7.430;2022-08-25T00:22:51;1.45;;;0.70;;
26860;SDS011;37676;46.956;7.430;2022-08-25T00:25:17;1.60;;;0.70;;
26860;SDS011;37676;46.956;7.430;2022-08-25T00:27:43;1.23;;;0.77;;
26860;SDS011;37676;46.956;7.430;2022-08-25T00:30:08;1.95;;;0.75;;
26860;SDS011;37676;46.956;7.430;2022-08-25T00:32:35;1.63;;;0.80;;
26860;SDS011;37676;46.956;7.430;2022-08-25T00:35:01;2.70;;;0.70;;
26860;SDS011;37676;46.956;7.430;2022-08-25T00:37:28;1.83;;;0.82;;
26860;SDS011;37676;46.956;7.430;2022-08-25T00:39:53;1.92;;;0.80;;
26860;SDS011;37676;46.956;7.430;2022-08-25T00:42:21;1.60;;;0.98;;
26860;SDS011;37676;46.956;7.430;2022-08-25T00:44:47;1.90;;;0.90;;
26860;SDS011;37676;46.956;7.430;2022-08-25T00:47:12;1.90;;;1.00;;
26860;SDS011;37676;46.956;7.430;2022-08-25T00:49:39;1.10;;;0.60;;
26860;SDS011;37676;46.956;7.430;2022-08-25T00:54:52;1.98;;;0.63;;
26860;SDS011;37676;46.956;7.430;2022-08-25T00:57:27;1.80;;;0.70;;
26860;SDS011;37676;46.956;7.430;2022-08-25T01:02:34;2.05;;;0.98;;
26860;SDS011;37676;46.956;7.430;2022-08-25T01:05:00;1.95;;;0.95;;
26860;SDS011;37676;46.956;7.430;2022-08-25T01:07:27;2.05;;;0.98;;
26860;SDS011;37676;46.956;7.430;2022-08-25T01:09:52;2.13;;;0.90;;
26860;SDS011;37676;46.956;7.430;2022-08-25T01:12:19;1.90;;;0.73;;
26860;SDS011;37676;46.956;7.430;2022-08-25T01:14:45;1.70;;;0.98;;
26860;SDS011;37676;46.956;7.430;2022-08-25T01:17:13;1.63;;;0.70;;
26860;SDS011;37676;46.956;7.430;2022-08-25T01:19:38;5.40;;;1.17;;
26860;SDS011;37676;46.956;7.430;2022-08-25T01:22:04;1.35;;;0.70;;
26860;SDS011;37676;46.956;7.430;2022-08-25T01:24:33;2.08;;;0.80;;
26860;SDS011;37676;46.956;7.430;2022-08-25T01:27:06;1.90;;;0.90;;
26860;SDS011;37676;46.956;7.430;2022-08-25T01:29:33;1.40;;;0.85;;
26860;SDS011;37676;46.956;7.430;2022-08-25T01:32:02;1.67;;;1.00;;
26860;SDS011;37676;46.956;7.430;2022-08-25T01:34:31;1.90;;;0.85;;
26860;SDS011;37676;46.956;7.430;2022-08-25T01:36:58;1.38;;;0.77;;
26860;SDS011;37676;46.956;7.430;2022-08-25T01:39:24;2.15;;;0.80;;
26860;SDS011;37676;46.956;7.430;2022-08-25T01:44:40;2.78;;;1.08;;
26860;SDS011;37676;46.956;7.430;2022-08-25T01:47:08;1.75;;;0.90;;
26860;SDS011;37676;46.956;7.430;2022-08-25T01:49:35;1.90;;;1.00;;
26860;SDS011;37676;46.956;7.430;2022-08-25T01:52:05;1.70;;;1.10;;
26860;SDS011;37676;46.956;7.430;2022-08-25T01:54:35;3.47;;;1.20;;
26860;SDS011;37676;46.956;7.430;2022-08-25T01:57:01;2.63;;;1.20;;
26860;SDS011;37676;46.956;7.430;2022-08-25T01:59:26;2.28;;;1.08;;
26860;SDS011;37676;46.956;7.430;2022-08-25T02:01:52;2.20;;;0.95;;
26860;SDS011;37676;46.956;7.430;2022-08-25T02:04:20;2.30;;;1.00;;
26860;SDS011;37676;46.956;7.430;2022-08-25T02:06:46;2.05;;;0.95;;
26860;SDS011;37676;46.956;7.430;2022-08-25T02:09:13;2.10;;;1.20;;
26860;SDS011;37676;46.956;7.430;2022-08-25T02:11:43;1.27;;;0.65;;
26860;SDS011;37676;46.956;7.430;2022-08-25T02:14:12;1.48;;;0.80;;
26860;SDS011;37676;46.956;7.430;2022-08-25T02:16:40;1.70;;;0.80;;
26860;SDS011;37676;46.956;7.430;2022-08-25T02:19:09;2.15;;;0.95;;
26860;SDS011;37676;46.956;7.430;2022-08-25T02:21:35;1.33;;;0.85;;
26860;SDS011;37676;46.956;7.430;2022-08-25T02:24:02;1.52;;;0.70;;
26860;SDS011;37676;46.956;7.430;2022-08-25T02:26:28;2.25;;;1.02;;
26860;SDS011;37676;46.956;7.430;2022-08-25T02:28:54;1.88;;;1.10;;
26860;SDS011;37676;46.956;7.430;2022-08-25T02:31:21;2.20;;;1.02;;
26860;SDS011;37676;46.956;7.430;2022-08-25T02:33:50;1.48;;;0.63;;
26860;SDS011;37676;46.956;7.430;2022-08-25T02:36:17;1.10;;;0.60;;
26860;SDS011;37676;46.956;7.430;2022-08-25T02:38:44;1.30;;;0.68;;
26860;SDS011;37676;46.956;7.430;2022-08-25T02:41:16;1.15;;;0.70;;
26860;SDS011;37676;46.956;7.430;2022-08-25T02:43:47;1.20;;;0.77;;
26860;SDS011;37676;46.956;7.430;2022-08-25T02:46:14;1.50;;;0.80;;
26860;SDS011;37676;46.956;7.430;2022-08-25T02:48:43;1.33;;;0.70;;
26860;SDS011;37676;46.956;7.430;2022-08-25T02:51:10;1.23;;;0.60;;
26860;SDS011;37676;46.956;7.430;2022-08-25T02:53:36;1.10;;;0.60;;
26860;SDS011;37676;46.956;7.430;2022-08-25T02:56:09;1.20;;;0.70;;
26860;SDS011;37676;46.956;7.430;2022-08-25T02:58:36;1.95;;;0.80;;
26860;SDS011;37676;46.956;7.430;2022-08-25T03:01:05;1.13;;;0.60;;
26860;SDS011;37676;46.956;7.430;2022-08-25T03:03:33;1.10;;;0.68;;
26860;SDS011;37676;46.956;7.430;2022-08-25T03:05:59;1.02;;;0.57;;
26860;SDS011;37676;46.956;7.430;2022-08-25T03:08:24;1.23;;;0.50;;
26860;SDS011;37676;46.956;7.430;2022-08-25T03:10:50;1.00;;;0.50;;
26860;SDS011;37676;46.956;7.430;2022-08-25T03:13:15;0.93;;;0.50;;
26860;SDS011;37676;46.956;7.430;2022-08-25T03:15:41;0.90;;;0.50;;
26860;SDS011;37676;46.956;7.430;2022-08-25T03:18:07;1.10;;;0.70;;
26860;SDS011;37676;46.956;7.430;2022-08-25T03:20:33;1.17;;;0.70;;
26860;SDS011;37676;46.956;7.430;2022-08-25T03:22:59;1.65;;;0.68;;
26860;SDS011;37676;46.956;7.430;2022-08-25T03:25:27;2.80;;;1.10;;
26860;SDS011;37676;46.956;7.430;2022-08-25T03:28:11;2.20;;;1.23;;
26860;SDS011;37676;46.956;7.430;2022-08-25T03:30:38;1.88;;;1.00;;
26860;SDS011;37676;46.956;7.430;2022-08-25T03:33:04;1.30;;;0.77;;
26860;SDS011;37676;46.956;7.430;2022-08-25T03:35:29;1.50;;;0.90;;
26860;SDS011;37676;46.956;7.430;2022-08-25T03:37:57;1.30;;;0.70;;
26860;SDS011;37676;46.956;7.430;2022-08-25T03:40:23;1.65;;;0.80;;
26860;SDS011;37676;46.956;7.430;2022-08-25T03:42:49;1.70;;;0.88;;
26860;SDS011;37676;46.956;7.430;2022-08-25T03:45:15;1.70;;;0.90;;
26860;SDS011;37676;46.956;7.430;2022-08-25T03:47:44;1.58;;;0.90;;
26860;SDS011;37676;46.956;7.430;2022-08-25T03:50:11;1.90;;;0.90;;
26860;SDS011;37676;46.956;7.430;2022-08-25T03:52:37;1.77;;;0.80;;
26860;SDS011;37676;46.956;7.430;2022-08-25T03:55:04;1.30;;;0.82;;
26860;SDS011;37676;46.956;7.430;2022-08-25T03:57:32;1.45;;;0.70;;
26860;SDS011;37676;46.956;7.430;2022-08-25T03:59:57;1.55;;;0.77;;
26860;SDS011;37676;46.956;7.430;2022-08-25T04:02:22;2.33;;;1.15;;
26860;SDS011;37676;46.956;7.430;2022-08-25T04:04:48;1.75;;;0.90;;
26860;SDS011;37676;46.956;7.430;2022-08-25T04:07:14;1.02;;;0.70;;
26860;SDS011;37676;46.956;7.430;2022-08-25T04:09:39;1.70;;;1.00;;
26860;SDS011;37676;46.956;7.430;2022-08-25T04:12:05;1.58;;;0.90;;
26860;SDS011;37676;46.956;7.430;2022-08-25T04:14:30;1.67;;;0.93;;
26860;SDS011;37676;46.956;7.430;2022-08-25T04:16:56;1.20;;;0.70;;
26860;SDS011;37676;46.956;7.430;2022-08-25T04:19:21;1.60;;;0.90;;
26860;SDS011;37676;46.956;7.430;2022-08-25T04:21:47;1.30;;;0.80;;
26860;SDS011;37676;46.956;7.430;2022-08-25T04:24:12;1.95;;;1.00;;
26860;SDS011;37676;46.956;7.430;2022-08-25T04:26:40;1.63;;;0.88;;
26860;SDS011;37676;46.956;7.430;2022-08-25T04:29:11;1.58;;;0.90;;
26860;SDS011;37676;46.956;7.430;2022-08-25T04:31:44;2.00;;;1.00;;
26860;SDS011;37676;46.956;7.430;2022-08-25T04:34:17;2.20;;;1.10;;
26860;SDS011;37676;46.956;7.430;2022-08-25T04:42:00;2.05;;;0.90;;
26860;SDS011;37676;46.956;7.430;2022-08-25T04:44:26;2.17;;;1.20;;
26860;SDS011;37676;46.956;7.430;2022-08-25T04:46:52;1.85;;;1.08;;
26860;SDS011;37676;46.956;7.430;2022-08-25T04:49:18;2.88;;;1.50;;
26860;SDS011;37676;46.956;7.430;2022-08-25T04:51:44;3.25;;;1.63;;
26860;SDS011;37676;46.956;7.430;2022-08-25T04:54:13;3.35;;;1.73;;
26860;SDS011;37676;46.956;7.430;2022-08-25T04:56:41;2.10;;;1.10;;
26860;SDS011;37676;46.956;7.430;2022-08-25T04:59:11;2.50;;;1.20;;
26860;SDS011;37676;46.956;7.430;2022-08-25T05:01:38;1.90;;;1.02;;
26860;SDS011;37676;46.956;7.430;2022-08-25T05:04:06;2.08;;;1.30;;
26860;SDS011;37676;46.956;7.430;2022-08-25T05:06:33;2.78;;;1.60;;
26860;SDS011;37676;46.956;7.430;2022-08-25T05:08:59;2.85;;;1.23;;
26860;SDS011;37676;46.956;7.430;2022-08-25T05:11:26;2.47;;;1.48;;
26860;SDS011;37676;46.956;7.430;2022-08-25T05:13:52;2.40;;;1.30;;
26860;SDS011;37676;46.956;7.430;2022-08-25T05:16:19;2.13;;;1.13;;
26860;SDS011;37676;46.956;7.430;2022-08-25T05:18:46;2.30;;;1.40;;
26860;SDS011;37676;46.956;7.430;2022-08-25T05:21:13;2.28;;;1.25;;
26860;SDS011;37676;46.956;7.430;2022-08-25T05:23:41;2.85;;;1.40;;
26860;SDS011;37676;46.956;7.430;2022-08-25T05:26:08;2.03;;;1.20;;
26860;SDS011;37676;46.956;7.430;2022-08-25T05:28:36;2.83;;;1.75;;
26860;SDS011;37676;46.956;7.430;2022-08-25T05:31:04;2.47;;;1.45;;
26860;SDS011;37676;46.956;7.430;2022-08-25T05:33:30;2.83;;;1.50;;
26860;SDS011;37676;46.956;7.430;2022-08-25T05:35:56;2.75;;;1.38;;
26860;SDS011;37676;46.956;7.430;2022-08-25T05:38:21;2.15;;;1.15;;
26860;SDS011;37676;46.956;7.430;2022-08-25T05:40:47;2.20;;;1.25;;
26860;SDS011;37676;46.956;7.430;2022-08-25T05:43:16;2.08;;;1.20;;
26860;SDS011;37676;46.956;7.430;2022-08-25T05:45:42;3.53;;;1.42;;
26860;SDS011;37676;46.956;7.430;2022-08-25T05:48:07;2.17;;;1.30;;
26860;SDS011;37676;46.956;7.430;2022-08-25T05:50:32;2.45;;;1.38;;
26860;SDS011;37676;46.956;7.430;2022-08-25T05:52:58;1.80;;;1.10;;
26860;SDS011;37676;46.956;7.430;2022-08-25T05:55:23;2.38;;;1.33;;
26860;SDS011;37676;46.956;7.430;2022-08-25T05:57:49;2.17;;;1.20;;
26860;SDS011;37676;46.956;7.430;2022-08-25T06:00:14;2.90;;;1.50;;
26860;SDS011;37676;46.956;7.430;2022-08-25T06:02:41;2.05;;;1.00;;
26860;SDS011;37676;46.956;7.430;2022-08-25T06:05:09;2.65;;;1.25;;
26860;SDS011;37676;46.956;7.430;2022-08-25T06:07:36;2.42;;;1.42;;
26860;SDS011;37676;46.956;7.430;2022-08-25T06:10:03;2.25;;;1.20;;
26860;SDS011;37676;46.956;7.430;2022-08-25T06:12:31;1.55;;;0.90;;
26860;SDS011;37676;46.956;7.430;2022-08-25T06:14:59;1.60;;;0.90;;
26860;SDS011;37676;46.956;7.430;2022-08-25T06:17:25;1.67;;;1.00;;
26860;SDS011;37676;46.956;7.430;2022-08-25T06:19:51;1.92;;;1.10;;
26860;SDS011;37676;46.956;7.430;2022-08-25T06:22:18;1.50;;;0.90;;
26860;SDS011;37676;46.956;7.430;2022-08-25T06:24:45;2.20;;;0.88;;
26860;SDS011;37676;46.956;7.430;2022-08-25T06:27:10;2.25;;;1.00;;
26860;SDS011;37676;46.956;7.430;2022-08-25T06:29:35;3.10;;;1.90;;
26860;SDS011;37676;46.956;7.430;2022-08-25T06:32:01;2.47;;;1.40;;
26860;SDS011;37676;46.956;7.430;2022-08-25T06:34:26;3.95;;;2.20;;
26860;SDS011;37676;46.956;7.430;2022-08-25T06:36:51;2.47;;;1.27;;
26860;SDS011;37676;46.956;7.430;2022-08-25T06:39:17;2.83;;;1.50;;
26860;SDS011;37676;46.956;7.430;2022-08-25T06:41:42;2.05;;;1.20;;
26860;SDS011;37676;46.956;7.430;2022-08-25T06:44:08;2.85;;;1.60;;
26860;SDS011;37676;46.956;7.430;2022-08-25T06:46:35;1.88;;;1.15;;
26860;SDS011;37676;46.956;7.430;2022-08-25T06:49:00;1.83;;;1.10;;
26860;SDS011;37676;46.956;7.430;2022-08-25T06:51:26;2.15;;;1.30;;
26860;SDS011;37676;46.956;7.430;2022-08-25T06:53:51;2.55;;;1.63;;
26860;SDS011;37676;46.956;7.430;2022-08-25T06:56:18;3.25;;;1.88;;
26860;SDS011;37676;46.956;7.430;2022-08-25T06:58:45;3.45;;;1.40;;
26860;SDS011;37676;46.956;7.430;2022-08-25T07:01:17;2.80;;;1.50;;
26860;SDS011;37676;46.956;7.430;2022-08-25T07:03:46;3.95;;;1.60;;
26860;SDS011;37676;46.956;7.430;2022-08-25T07:06:12;2.97;;;1.50;;
26860;SDS011;37676;46.956;7.430;2022-08-25T07:08:37;3.05;;;1.50;;
26860;SDS011;37676;46.956;7.430;2022-08-25T07:11:06;3.20;;;1.63;;
26860;SDS011;37676;46.956;7.430;2022-08-25T07:13:33;3.20;;;1.52;;
26860;SDS011;37676;46.956;7.430;2022-08-25T07:15:59;2.50;;;1.27;;
26860;SDS011;37676;46.956;7.430;2022-08-25T07:18:24;2.55;;;1.20;;
26860;SDS011;37676;46.956;7.430;2022-08-25T07:20:50;3.38;;;1.60;;
26860;SDS011;37676;46.956;7.430;2022-08-25T07:23:17;2.78;;;1.55;;
26860;SDS011;37676;46.956;7.430;2022-08-25T07:25:43;2.47;;;1.30;;
26860;SDS011;37676;46.956;7.430;2022-08-25T07:28:09;2.10;;;1.20;;
26860;SDS011;37676;46.956;7.430;2022-08-25T07:30:34;2.25;;;1.25;;
26860;SDS011;37676;46.956;7.430;2022-08-25T07:33:00;3.63;;;2.08;;
26860;SDS011;37676;46.956;7.430;2022-08-25T07:35:25;2.20;;;1.15;;
26860;SDS011;37676;46.956;7.430;2022-08-25T07:37:52;3.22;;;1.60;;
26860;SDS011;37676;46.956;7.430;2022-08-25T07:40:24;2.35;;;1.30;;
26860;SDS011;37676;46.956;7.430;2022-08-25T07:42:52;6.43;;;4.45;;
26860;SDS011;37676;46.956;7.430;2022-08-25T07:45:20;3.60;;;1.90;;
26860;SDS011;37676;46.956;7.430;2022-08-25T07:48:10;4.40;;;2.13;;
26860;SDS011;37676;46.956;7.430;2022-08-25T07:50:37;3.60;;;1.90;;
26860;SDS011;37676;46.956;7.430;2022-08-25T07:53:06;4.07;;;2.00;;
26860;SDS011;37676;46.956;7.430;2022-08-25T07:55:32;3.15;;;2.03;;
26860;SDS011;37676;46.956;7.430;2022-08-25T07:58:00;3.42;;;1.98;;
26860;SDS011;37676;46.956;7.430;2022-08-25T08:00:26;2.97;;;1.70;;
26860;SDS011;37676;46.956;7.430;2022-08-25T08:02:54;3.17;;;1.90;;
26860;SDS011;37676;46.956;7.430;2022-08-25T08:05:23;2.70;;;1.33;;
26860;SDS011;37676;46.956;7.430;2022-08-25T08:07:49;2.00;;;1.17;;
26860;SDS011;37676;46.956;7.430;2022-08-25T08:10:15;4.25;;;2.13;;
26860;SDS011;37676;46.956;7.430;2022-08-25T08:12:41;3.45;;;1.70;;
26860;SDS011;37676;46.956;7.430;2022-08-25T08:15:06;3.17;;;1.80;;
26860;SDS011;37676;46.956;7.430;2022-08-25T08:17:33;3.10;;;1.92;;
26860;SDS011;37676;46.956;7.430;2022-08-25T08:19:59;3.50;;;2.35;;
26860;SDS011;37676;46.956;7.430;2022-08-25T08:22:24;3.20;;;2.20;;
26860;SDS011;37676;46.956;7.430;2022-08-25T08:24:49;7.32;;;3.60;;
26860;SDS011;37676;46.956;7.430;2022-08-25T08:27:15;3.35;;;2.30;;
26860;SDS011;37676;46.956;7.430;2022-08-25T08:29:40;3.75;;;2.03;;
26860;SDS011;37676;46.956;7.430;2022-08-25T08:32:08;2.88;;;1.80;;
26860;SDS011;37676;46.956;7.430;2022-08-25T08:34:37;3.13;;;1.90;;
26860;SDS011;37676;46.956;7.430;2022-08-25T08:37:05;3.08;;;2.00;;
26860;SDS011;37676;46.956;7.430;2022-08-25T08:39:31;3.70;;;2.42;;
26860;SDS011;37676;46.956;7.430;2022-08-25T08:45:05;3.58;;;2.00;;
26860;SDS011;37676;46.956;7.430;2022-08-25T08:53:24;2.75;;;1.65;;
26860;SDS011;37676;46.956;7.430;2022-08-25T08:55:57;3.47;;;2.05;;
26860;SDS011;37676;46.956;7.430;2022-08-25T08:58:27;2.78;;;1.77;;
26860;SDS011;37676;46.956;7.430;2022-08-25T09:01:03;3.45;;;2.35;;
26860;SDS011;37676;46.956;7.430;2022-08-25T09:03:40;3.70;;;2.45;;
26860;SDS011;37676;46.956;7.430;2022-08-25T09:06:19;3.10;;;1.80;;
26860;SDS011;37676;46.956;7.430;2022-08-25T09:08:49;4.22;;;2.42;;
26860;SDS011;37676;46.956;7.430;2022-08-25T09:16:52;2.20;;;1.33;;
26860;SDS011;37676;46.956;7.430;2022-08-25T09:22:30;2.28;;;1.40;;
26860;SDS011;37676;46.956;7.430;2022-08-25T09:25:11;2.35;;;1.30;;
26860;SDS011;37676;46.956;7.430;2022-08-25T09:27:47;3.15;;;1.63;;
26860;SDS011;37676;46.956;7.430;2022-08-25T09:30:46;4.10;;;2.13;;
26860;SDS011;37676;46.956;7.430;2022-08-25T09:33:19;2.65;;;1.90;;
26860;SDS011;37676;46.956;7.430;2022-08-25T09:35:46;3.10;;;1.88;;
26860;SDS011;37676;46.956;7.430;2022-08-25T09:38:13;3.45;;;1.58;;
26860;SDS011;37676;46.956;7.430;2022-08-25T09:40:40;2.05;;;1.20;;
26860;SDS011;37676;46.956;7.430;2022-08-25T09:43:19;1.85;;;1.10;;
26860;SDS011;37676;46.956;7.430;2022-08-25T09:46:00;2.25;;;1.48;;
26860;SDS011;37676;46.956;7.430;2022-08-25T09:48:30;2.80;;;1.83;;
26860;SDS011;37676;46.956;7.430;2022-08-25T09:51:08;2.53;;;1.50;;
26860;SDS011;37676;46.956;7.430;2022-08-25T09:59:25;2.25;;;1.42;;
26860;SDS011;37676;46.956;7.430;2022-08-25T10:01:58;2.35;;;1.30;;
26860;SDS011;37676;46.956;7.430;2022-08-25T10:04:35;2.28;;;1.40;;
26860;SDS011;37676;46.956;7.430;2022-08-25T10:07:04;2.03;;;1.20;;
26860;SDS011;37676;46.956;7.430;2022-08-25T10:09:50;3.03;;;1.48;;
26860;SDS011;37676;46.956;7.430;2022-08-25T10:12:39;2.10;;;1.25;;
26860;SDS011;37676;46.956;7.430;2022-08-25T10:20:59;1.80;;;1.10;;
26860;SDS011;37676;46.956;7.430;2022-08-25T10:23:30;2.58;;;1.30;;
26860;SDS011;37676;46.956;7.430;2022-08-25T10:25:59;2.10;;;1.30;;
26860;SDS011;37676;46.956;7.430;2022-08-25T10:28:36;2.33;;;1.20;;
26860;SDS011;37676;46.956;7.430;2022-08-25T10:31:22;2.28;;;1.20;;
26860;SDS011;37676;46.956;7.430;2022-08-25T10:42:06;2.05;;;1.20;;
26860;SDS011;37676;46.956;7.430;2022-08-25T10:44:42;6.95;;;4.22;;
26860;SDS011;37676;46.956;7.430;2022-08-25T10:50:33;2.97;;;1.50;;
26860;SDS011;37676;46.956;7.430;2022-08-25T10:58:39;2.78;;;1.63;;
26860;SDS011;37676;46.956;7.430;2022-08-25T11:07:33;3.15;;;1.70;;
26860;SDS011;37676;46.956;7.430;2022-08-25T11:10:10;3.10;;;1.50;;
26860;SDS011;37676;46.956;7.430;2022-08-25T11:13:01;2.58;;;1.63;;
26860;SDS011;37676;46.956;7.430;2022-08-25T11:15:28;1.60;;;0.98;;
26860;SDS011;37676;46.956;7.430;2022-08-25T11:18:03;1.95;;;1.13;;
26860;SDS011;37676;46.956;7.430;2022-08-25T11:20:32;2.33;;;1.00;;
26860;SDS011;37676;46.956;7.430;2022-08-25T11:23:22;2.15;;;1.38;;
26860;SDS011;37676;46.956;7.430;2022-08-25T11:25:51;1.70;;;1.20;;
26860;SDS011;37676;46.956;7.430;2022-08-25T11:31:20;2.50;;;1.40;;
26860;SDS011;37676;46.956;7.430;2022-08-25T11:33:48;2.67;;;1.70;;
26860;SDS011;37676;46.956;7.430;2022-08-25T11:36:34;5.25;;;2.38;;
26860;SDS011;37676;46.956;7.430;2022-08-25T11:47:27;2.58;;;1.65;;
26860;SDS011;37676;46.956;7.430;2022-08-25T11:50:30;2.25;;;1.30;;
26860;SDS011;37676;46.956;7.430;2022-08-25T11:52:59;2.00;;;1.20;;
26860;SDS011;37676;46.956;7.430;2022-08-25T11:55:47;1.90;;;0.90;;
26860;SDS011;37676;46.956;7.430;2022-08-25T12:00:52;2.08;;;1.15;;
26860;SDS011;37676;46.956;7.430;2022-08-25T12:09:06;2.92;;;1.75;;
26860;SDS011;37676;46.956;7.430;2022-08-25T12:11:49;1.95;;;1.10;;
26860;SDS011;37676;46.956;7.430;2022-08-25T12:29:50;1.83;;;1.10;;
26860;SDS011;37676;46.956;7.430;2022-08-25T12:37:57;4.68;;;1.27;;
26860;SDS011;37676;46.956;7.430;2022-08-25T12:40:30;2.70;;;1.52;;
26860;SDS011;37676;46.956;7.430;2022-08-25T12:43:03;2.08;;;1.00;;
26860;SDS011;37676;46.956;7.430;2022-08-25T12:45:33;2.20;;;1.08;;
26860;SDS011;37676;46.956;7.430;2022-08-25T12:51:02;1.88;;;0.88;;
26860;SDS011;37676;46.956;7.430;2022-08-25T12:53:40;1.48;;;0.80;;
26860;SDS011;37676;46.956;7.430;2022-08-25T12:56:18;2.88;;;1.05;;
26860;SDS011;37676;46.956;7.430;2022-08-25T12:59:02;3.25;;;1.00;;
26860;SDS011;37676;46.956;7.430;2022-08-25T13:01:41;2.70;;;1.48;;
26860;SDS011;37676;46.956;7.430;2022-08-25T13:07:13;3.90;;;1.73;;
26860;SDS011;37676;46.956;7.430;2022-08-25T13:10:06;1.73;;;0.98;;
26860;SDS011;37676;46.956;7.430;2022-08-25T13:12:38;1.45;;;0.98;;
26860;SDS011;37676;46.956;7.430;2022-08-25T13:15:12;1.25;;;0.70;;
26860;SDS011;37676;46.956;7.430;2022-08-25T13:17:40;1.00;;;0.63;;
26860;SDS011;37676;46.956;7.430;2022-08-25T13:20:26;1.40;;;0.70;;
26860;SDS011;37676;46.956;7.430;2022-08-25T13:22:55;1.30;;;0.68;;
26860;SDS011;37676;46.956;7.430;2022-08-25T13:25:23;1.15;;;0.68;;
26860;SDS011;37676;46.956;7.430;2022-08-25T13:27:54;1.70;;;1.00;;
26860;SDS011;37676;46.956;7.430;2022-08-25T13:32:54;1.13;;;0.80;;
26860;SDS011;37676;46.956;7.430;2022-08-25T13:35:24;1.40;;;0.90;;
26860;SDS011;37676;46.956;7.430;2022-08-25T13:37:52;2.60;;;1.08;;
26860;SDS011;37676;46.956;7.430;2022-08-25T13:42:48;2.42;;;1.15;;
26860;SDS011;37676;46.956;7.430;2022-08-25T13:45:16;1.58;;;0.90;;
26860;SDS011;37676;46.956;7.430;2022-08-25T13:47:44;1.42;;;0.80;;
26860;SDS011;37676;46.956;7.430;2022-08-25T13:50:15;1.30;;;0.73;;
26860;SDS011;37676;46.956;7.430;2022-08-25T13:52:51;1.60;;;0.80;;
26860;SDS011;37676;46.956;7.430;2022-08-25T13:55:22;1.15;;;0.82;;
26860;SDS011;37676;46.956;7.430;2022-08-25T13:57:49;2.05;;;0.85;;
26860;SDS011;37676;46.956;7.430;2022-08-25T14:00:24;1.67;;;0.98;;
26860;SDS011;37676;46.956;7.430;2022-08-25T14:02:53;1.90;;;1.02;;
26860;SDS011;37676;46.956;7.430;2022-08-25T14:05:29;2.08;;;0.95;;
26860;SDS011;37676;46.956;7.430;2022-08-25T14:07:58;1.48;;;0.80;;
26860;SDS011;37676;46.956;7.430;2022-08-25T14:10:40;2.10;;;1.05;;
26860;SDS011;37676;46.956;7.430;2022-08-25T14:13:12;1.70;;;0.98;;
26860;SDS011;37676;46.956;7.430;2022-08-25T14:15:39;1.33;;;0.70;;
26860;SDS011;37676;46.956;7.430;2022-08-25T14:20:38;1.50;;;0.90;;
26860;SDS011;37676;46.956;7.430;2022-08-25T14:23:10;1.67;;;0.90;;
26860;SDS011;37676;46.956;7.430;2022-08-25T14:25:39;1.42;;;0.80;;
26860;SDS011;37676;46.956;7.430;2022-08-25T14:28:07;1.85;;;1.00;;
26860;SDS011;37676;46.956;7.430;2022-08-25T14:30:35;1.17;;;0.77;;
26860;SDS011;37676;46.956;7.430;2022-08-25T14:33:04;1.63;;;0.80;;
26860;SDS011;37676;46.956;7.430;2022-08-25T14:35:30;1.25;;;0.70;;
26860;SDS011;37676;46.956;7.430;2022-08-25T14:37:56;1.20;;;0.70;;
26860;SDS011;37676;46.956;7.430;2022-08-25T14:40:21;1.60;;;0.90;;
26860;SDS011;37676;46.956;7.430;2022-08-25T14:42:47;1.50;;;0.63;;
26860;SDS011;37676;46.956;7.430;2022-08-25T14:45:14;1.65;;;0.88;;
26860;SDS011;37676;46.956;7.430;2022-08-25T14:47:40;1.50;;;0.80;;
26860;SDS011;37676;46.956;7.430;2022-08-25T14:50:06;1.70;;;0.90;;
26860;SDS011;37676;46.956;7.430;2022-08-25T14:52:33;1.83;;;0.80;;
26860;SDS011;37676;46.956;7.430;2022-08-25T14:54:59;1.58;;;0.70;;
26860;SDS011;37676;46.956;7.430;2022-08-25T14:57:24;1.42;;;0.70;;
26860;SDS011;37676;46.956;7.430;2022-08-25T14:59:50;2.15;;;1.00;;
26860;SDS011;37676;46.956;7.430;2022-08-25T15:02:16;1.02;;;0.60;;
26860;SDS011;37676;46.956;7.430;2022-08-25T15:04:45;1.80;;;0.80;;
26860;SDS011;37676;46.956;7.430;2022-08-25T15:07:21;1.48;;;0.80;;
26860;SDS011;37676;46.956;7.430;2022-08-25T15:10:06;2.95;;;0.98;;
26860;SDS011;37676;46.956;7.430;2022-08-25T15:12:32;2.00;;;0.80;;
26860;SDS011;37676;46.956;7.430;2022-08-25T15:14:58;1.35;;;0.70;;
26860;SDS011;37676;46.956;7.430;2022-08-25T15:19:15;1.20;;;0.73;;
26860;SDS011;37676;46.956;7.430;2022-08-25T15:21:43;1.05;;;0.65;;
26860;SDS011;37676;46.956;7.430;2022-08-25T15:24:10;1.17;;;0.70;;
26860;SDS011;37676;46.956;7.430;2022-08-25T15:26:45;0.93;;;0.57;;
26860;SDS011;37676;46.956;7.430;2022-08-25T15:29:14;1.90;;;0.80;;
26860;SDS011;37676;46.956;7.430;2022-08-25T15:31:40;1.52;;;0.80;;
26860;SDS011;37676;46.956;7.430;2022-08-25T15:34:06;1.52;;;0.90;;
26860;SDS011;37676;46.956;7.430;2022-08-25T15:36:33;1.38;;;0.88;;
26860;SDS011;37676;46.956;7.430;2022-08-25T15:39:00;2.35;;;0.90;;
26860;SDS011;37676;46.956;7.430;2022-08-25T15:41:26;1.95;;;1.05;;
26860;SDS011;37676;46.956;7.430;2022-08-25T15:43:51;2.30;;;0.95;;
26860;SDS011;37676;46.956;7.430;2022-08-25T15:46:18;1.70;;;0.93;;
26860;SDS011;37676;46.956;7.430;2022-08-25T15:48:45;2.17;;;0.90;;
26860;SDS011;37676;46.956;7.430;2022-08-25T15:51:11;2.22;;;1.00;;
26860;SDS011;37676;46.956;7.430;2022-08-25T15:53:37;1.00;;;0.60;;
26860;SDS011;37676;46.956;7.430;2022-08-25T15:56:03;1.83;;;0.90;;
26860;SDS011;37676;46.956;7.430;2022-08-25T15:58:29;1.42;;;0.88;;
26860;SDS011;37676;46.956;7.430;2022-08-25T16:00:54;1.00;;;0.60;;
26860;SDS011;37676;46.956;7.430;2022-08-25T16:03:20;0.80;;;0.50;;
26860;SDS011;37676;46.956;7.430;2022-08-25T16:05:45;0.88;;;0.60;;
26860;SDS011;37676;46.956;7.430;2022-08-25T16:08:11;1.20;;;0.47;;
26860;SDS011;37676;46.956;7.430;2022-08-25T16:10:38;1.25;;;0.60;;
26860;SDS011;37676;46.956;7.430;2022-08-25T16:13:05;1.38;;;0.70;;
26860;SDS011;37676;46.956;7.430;2022-08-25T16:15:31;1.20;;;0.80;;
26860;SDS011;37676;46.956;7.430;2022-08-25T16:17:58;1.40;;;0.73;;
26860;SDS011;37676;46.956;7.430;2022-08-25T16:20:24;1.05;;;0.60;;
26860;SDS011;37676;46.956;7.430;2022-08-25T16:22:51;0.80;;;0.55;;
26860;SDS011;37676;46.956;7.430;2022-08-25T16:25:16;1.33;;;0.60;;
26860;SDS011;37676;46.956;7.430;2022-08-25T16:27:41;1.23;;;0.70;;
26860;SDS011;37676;46.956;7.430;2022-08-25T16:30:09;1.00;;;0.60;;
26860;SDS011;37676;46.956;7.430;2022-08-25T16:32:36;1.45;;;0.60;;
26860;SDS011;37676;46.956;7.430;2022-08-25T16:35:02;1.75;;;0.80;;
26860;SDS011;37676;46.956;7.430;2022-08-25T16:37:30;1.13;;;0.63;;
26860;SDS011;37676;46.956;7.430;2022-08-25T16:39:56;1.58;;;0.50;;
26860;SDS011;37676;46.956;7.430;2022-08-25T16:42:22;1.42;;;0.50;;
26860;SDS011;37676;46.956;7.430;2022-08-25T16:44:47;0.90;;;0.43;;
26860;SDS011;37676;46.956;7.430;2022-08-25T16:47:12;0.90;;;0.50;;
26860;SDS011;37676;46.956;7.430;2022-08-25T16:49:38;0.50;;;0.38;;
26860;SDS011;37676;46.956;7.430;2022-08-25T16:52:05;2.28;;;0.50;;
26860;SDS011;37676;46.956;7.430;2022-08-25T16:54:51;0.77;;;0.40;;
26860;SDS011;37676;46.956;7.430;2022-08-25T16:57:35;0.75;;;0.45;;
26860;SDS011;37676;46.956;7.430;2022-08-25T17:00:01;0.95;;;0.50;;